createdAt,value
2022-12-31T00:02:23.325Z,11.70
2022-12-31T00:04:50.545Z,12.15
2022-12-31T00:07:17.532Z,11.90
2022-12-31T00:09:44.591Z,10.98
2022-12-31T00:12:11.643Z,11.63
2022-12-31T00:14:38.776Z,12.38
2022-12-31T00:17:05.840Z,11.35
2022-12-31T00:19:33.059Z,10.65
2022-12-31T00:22:03.054Z,12.32
2022-12-31T00:24:31.249Z,12.05
2022-12-31T00:26:58.285Z,11.63
2022-12-31T00:29:25.462Z,10.98
2022-12-31T00:31:52.412Z,11.63
2022-12-31T00:34:19.644Z,12.40
2022-12-31T00:36:46.708Z,11.55
2022-12-31T00:39:13.829Z,12.07
2022-12-31T00:41:40.908Z,11.60
2022-12-31T00:44:08.140Z,11.43
2022-12-31T00:49:01.302Z,12.50
2022-12-31T00:51:29.115Z,11.95
2022-12-31T00:53:57.273Z,11.57
2022-12-31T00:56:27.924Z,11.35
2022-12-31T00:58:55.267Z,11.23
2022-12-31T01:01:25.669Z,10.98
2022-12-31T01:03:56.543Z,11.65
2022-12-31T01:06:24.421Z,11.68
2022-12-31T01:08:53.397Z,10.57
2022-12-31T01:11:22.740Z,10.98
2022-12-31T01:13:59.037Z,10.82
2022-12-31T01:16:53.270Z,11.05
2022-12-31T01:19:29.393Z,10.40
2022-12-31T01:21:56.787Z,11.05
2022-12-31T01:24:24.066Z,10.77
2022-12-31T01:26:51.973Z,10.23
2022-12-31T01:29:19.134Z,10.10
2022-12-31T01:31:46.428Z,9.93
2022-12-31T01:34:13.618Z,10.07
2022-12-31T01:36:40.716Z,9.95
2022-12-31T01:39:09.689Z,10.07
2022-12-31T01:41:39.293Z,9.90
2022-12-31T01:44:12.674Z,8.93
2022-12-31T01:49:22.853Z,9.63
2022-12-31T01:52:02.585Z,10.20
2022-12-31T01:54:33.468Z,9.63
2022-12-31T01:57:01.118Z,9.13
2022-12-31T01:59:30.459Z,9.65
2022-12-31T02:01:58.365Z,9.82
2022-12-31T02:04:26.959Z,9.23
2022-12-31T02:06:58.669Z,8.88
2022-12-31T02:09:26.164Z,9.30
2022-12-31T02:11:53.561Z,8.90
2022-12-31T02:14:30.831Z,10.07
2022-12-31T02:17:19.478Z,8.65
2022-12-31T02:20:23.624Z,8.27
2022-12-31T02:23:08.907Z,9.50
2022-12-31T02:25:55.775Z,9.07
2022-12-31T02:29:03.133Z,8.82
2022-12-31T02:31:37.800Z,9.00
2022-12-31T02:34:13.855Z,10.35
2022-12-31T02:36:44.531Z,9.20
2022-12-31T02:39:12.640Z,9.05
2022-12-31T02:41:52.175Z,9.20
2022-12-31T02:44:34.716Z,9.43
2022-12-31T02:47:28.249Z,9.48
2022-12-31T02:50:36.981Z,9.48
2022-12-31T02:53:21.904Z,8.70
2022-12-31T02:56:21.441Z,9.68
2022-12-31T02:59:46.892Z,9.88
2022-12-31T03:02:19.771Z,8.73
2022-12-31T03:04:56.296Z,9.35
2022-12-31T03:07:29.804Z,9.25
2022-12-31T03:09:56.989Z,9.73
2022-12-31T03:12:46.043Z,9.32
2022-12-31T03:15:22.908Z,8.18
2022-12-31T03:18:05.366Z,8.77
2022-12-31T03:20:54.361Z,8.77
2022-12-31T03:23:29.392Z,8.55
2022-12-31T03:25:57.415Z,9.40
2022-12-31T03:28:27.034Z,10.30
2022-12-31T03:31:04.422Z,9.07
2022-12-31T03:33:37.947Z,9.82
2022-12-31T03:36:11.841Z,9.43
2022-12-31T03:38:39.263Z,9.50
2022-12-31T03:41:06.834Z,8.13
2022-12-31T03:43:34.018Z,9.38
2022-12-31T03:46:01.721Z,7.88
2022-12-31T03:48:28.933Z,8.45
2022-12-31T03:50:55.937Z,8.38
2022-12-31T03:53:23.301Z,8.18
2022-12-31T03:55:54.126Z,7.35
2022-12-31T03:58:21.992Z,8.15
2022-12-31T04:00:50.228Z,7.00
2022-12-31T04:03:17.441Z,7.10
2022-12-31T04:05:44.610Z,7.15
2022-12-31T04:08:11.616Z,7.40
2022-12-31T04:10:38.767Z,8.50
2022-12-31T04:13:05.850Z,8.00
2022-12-31T04:15:33.031Z,7.60
2022-12-31T04:18:00.209Z,8.40
2022-12-31T04:20:27.327Z,7.95
2022-12-31T04:22:54.270Z,7.68
2022-12-31T04:25:21.387Z,7.95
2022-12-31T04:27:48.582Z,7.85
2022-12-31T04:30:15.839Z,8.73
2022-12-31T04:32:42.882Z,8.73
2022-12-31T04:35:10.876Z,7.78
2022-12-31T04:37:37.987Z,7.68
2022-12-31T04:40:07.103Z,7.65
2022-12-31T04:42:35.252Z,8.55
2022-12-31T04:45:02.682Z,7.38
2022-12-31T04:47:29.914Z,7.57
2022-12-31T04:49:56.983Z,7.07
2022-12-31T04:52:24.064Z,7.30
2022-12-31T04:54:51.109Z,6.57
2022-12-31T04:57:18.303Z,6.82
2022-12-31T04:59:45.339Z,6.93
2022-12-31T05:02:12.781Z,9.25
2022-12-31T05:04:40.005Z,8.90
2022-12-31T05:07:07.276Z,8.48
2022-12-31T05:09:34.389Z,7.70
2022-12-31T05:12:01.467Z,7.15
2022-12-31T05:14:28.511Z,7.57
2022-12-31T05:16:56.024Z,8.60
2022-12-31T05:19:23.065Z,8.27
2022-12-31T05:22:10.145Z,7.70
2022-12-31T05:24:37.310Z,6.88
2022-12-31T05:27:04.346Z,8.68
2022-12-31T05:29:31.428Z,14.35
2022-12-31T05:31:58.543Z,14.65
2022-12-31T05:34:25.576Z,14.57
2022-12-31T05:36:53.212Z,11.55
2022-12-31T05:39:21.317Z,9.93
2022-12-31T05:41:48.282Z,8.90
2022-12-31T05:44:15.393Z,8.65
2022-12-31T05:46:42.454Z,8.52
2022-12-31T05:49:09.469Z,7.82
2022-12-31T05:51:36.489Z,7.63
2022-12-31T05:54:04.071Z,8.25
2022-12-31T05:56:31.085Z,8.13
2022-12-31T05:58:58.212Z,8.32
2022-12-31T06:01:25.312Z,7.70
2022-12-31T06:03:52.607Z,8.57
2022-12-31T06:06:19.732Z,10.00
2022-12-31T06:08:51.684Z,7.82
2022-12-31T06:11:18.890Z,7.25
2022-12-31T06:13:45.870Z,7.22
2022-12-31T06:16:13.484Z,7.45
2022-12-31T06:18:40.570Z,7.40
2022-12-31T06:21:07.781Z,7.60
2022-12-31T06:23:34.991Z,6.60
2022-12-31T06:26:05.552Z,7.32
2022-12-31T06:28:33.131Z,7.43
2022-12-31T06:31:05.914Z,8.38
2022-12-31T06:33:33.636Z,7.88
2022-12-31T06:36:03.145Z,7.95
2022-12-31T06:38:32.431Z,8.18
2022-12-31T06:41:06.569Z,8.32
2022-12-31T06:43:35.330Z,7.97
2022-12-31T06:46:03.697Z,8.32
2022-12-31T06:48:31.084Z,8.18
2022-12-31T06:51:04.543Z,8.10
2022-12-31T06:56:06.076Z,8.70
2022-12-31T06:58:33.562Z,8.20
2022-12-31T07:01:05.222Z,8.52
2022-12-31T07:04:01.725Z,9.02
2022-12-31T07:06:38.199Z,8.63
2022-12-31T07:09:10.790Z,7.82
2022-12-31T07:11:46.518Z,8.65
2022-12-31T07:14:53.983Z,8.15
2022-12-31T07:17:54.804Z,7.57
2022-12-31T07:20:22.394Z,7.72
2022-12-31T07:22:49.835Z,9.75
2022-12-31T07:25:18.281Z,9.00
2022-12-31T07:28:20.417Z,9.57
2022-12-31T07:31:17.426Z,9.10
2022-12-31T07:34:15.900Z,8.95
2022-12-31T07:37:14.728Z,9.18
2022-12-31T07:39:46.841Z,8.43
2022-12-31T07:42:25.581Z,8.68
2022-12-31T07:45:05.769Z,10.50
2022-12-31T07:47:33.375Z,10.15
2022-12-31T07:50:00.902Z,10.63
2022-12-31T07:52:28.241Z,11.23
2022-12-31T07:54:55.489Z,14.40
2022-12-31T07:57:29.789Z,12.00
2022-12-31T08:00:13.551Z,11.05
2022-12-31T08:03:04.863Z,10.98
2022-12-31T08:05:44.190Z,9.98
2022-12-31T08:08:29.272Z,10.15
2022-12-31T08:11:15.786Z,10.75
2022-12-31T08:13:43.423Z,11.15
2022-12-31T08:16:13.591Z,11.23
2022-12-31T08:18:41.061Z,11.93
2022-12-31T08:21:30.999Z,10.88
2022-12-31T08:24:20.172Z,11.48
2022-12-31T08:27:00.481Z,10.10
2022-12-31T08:29:27.465Z,10.30
2022-12-31T08:32:12.319Z,10.23
2022-12-31T08:34:55.871Z,9.70
2022-12-31T08:40:28.318Z,11.07
2022-12-31T08:43:10.452Z,10.77
2022-12-31T08:45:58.003Z,10.77
2022-12-31T08:48:33.191Z,10.23
2022-12-31T08:51:00.420Z,11.20
2022-12-31T08:53:27.833Z,9.65
2022-12-31T08:56:15.694Z,9.52
2022-12-31T08:59:00.950Z,8.32
2022-12-31T09:01:36.345Z,7.28
2022-12-31T09:04:20.482Z,7.90
2022-12-31T09:06:58.954Z,7.28
2022-12-31T09:09:42.512Z,7.95
2022-12-31T09:12:32.881Z,10.95
2022-12-31T09:15:12.002Z,10.77
2022-12-31T09:17:46.104Z,7.88
2022-12-31T09:20:45.350Z,8.90
2022-12-31T09:23:13.536Z,8.25
2022-12-31T09:26:10.112Z,7.80
2022-12-31T09:28:58.801Z,7.95
2022-12-31T09:31:52.227Z,7.93
2022-12-31T09:34:22.223Z,7.97
2022-12-31T09:36:54.704Z,7.80
2022-12-31T09:39:35.720Z,8.35
2022-12-31T09:43:01.474Z,7.65
2022-12-31T09:45:47.001Z,7.90
2022-12-31T09:48:41.614Z,7.80
2022-12-31T09:51:56.229Z,6.97
2022-12-31T09:54:26.035Z,6.85
2022-12-31T09:57:13.074Z,6.18
2022-12-31T09:59:58.512Z,6.57
2022-12-31T10:02:48.764Z,6.70
2022-12-31T10:05:18.906Z,6.45
2022-12-31T10:08:19.563Z,7.28
2022-12-31T10:10:57.783Z,5.95
2022-12-31T10:13:44.332Z,7.47
2022-12-31T10:16:41.766Z,6.97
2022-12-31T10:19:27.443Z,7.03
2022-12-31T10:22:02.913Z,7.28
2022-12-31T10:25:01.074Z,6.70
2022-12-31T10:27:43.707Z,5.53
2022-12-31T10:30:19.820Z,5.93
2022-12-31T10:33:13.114Z,6.72
2022-12-31T10:35:50.878Z,6.25
2022-12-31T10:38:36.434Z,8.05
2022-12-31T10:41:49.410Z,6.90
2022-12-31T10:44:45.192Z,6.90
2022-12-31T10:47:24.420Z,7.60
2022-12-31T10:50:12.171Z,8.52
2022-12-31T10:52:45.477Z,8.52
2022-12-31T10:55:49.778Z,8.40
2022-12-31T10:58:58.019Z,7.85
2022-12-31T11:01:33.022Z,6.85
2022-12-31T11:04:12.210Z,6.22
2022-12-31T11:06:48.546Z,5.60
2022-12-31T11:09:38.770Z,5.30
2022-12-31T11:12:16.821Z,5.28
2022-12-31T11:15:03.821Z,5.18
2022-12-31T11:17:36.739Z,5.40
2022-12-31T11:20:40.737Z,5.82
2022-12-31T11:26:40.860Z,4.95
2022-12-31T11:29:23.025Z,4.93
2022-12-31T11:32:02.291Z,5.03
2022-12-31T11:35:03.935Z,4.13
2022-12-31T11:37:41.734Z,4.72
2022-12-31T11:40:33.552Z,4.30
2022-12-31T11:43:22.825Z,4.47
2022-12-31T11:46:17.012Z,4.80
2022-12-31T11:49:00.844Z,4.45
2022-12-31T11:51:27.890Z,5.07
2022-12-31T11:54:39.041Z,4.30
2022-12-31T11:57:24.735Z,4.88
2022-12-31T11:59:57.998Z,4.85
2022-12-31T12:02:34.400Z,4.68
2022-12-31T12:05:11.506Z,3.85
2022-12-31T12:07:39.061Z,4.35
2022-12-31T12:10:31.767Z,3.95
2022-12-31T12:13:13.646Z,4.18
2022-12-31T12:15:44.493Z,3.75
2022-12-31T12:18:34.113Z,3.95
2022-12-31T12:21:05.831Z,3.80
2022-12-31T12:23:33.096Z,3.92
2022-12-31T12:26:00.230Z,4.05
2022-12-31T12:28:30.831Z,4.07
2022-12-31T12:31:01.985Z,4.43
2022-12-31T12:33:41.320Z,4.05
2022-12-31T12:36:11.088Z,4.15
2022-12-31T12:38:39.270Z,4.45
2022-12-31T12:41:11.614Z,3.85
2022-12-31T12:43:40.122Z,3.77
2022-12-31T12:46:30.657Z,3.50
2022-12-31T12:48:59.822Z,4.47
2022-12-31T12:51:35.830Z,3.53
2022-12-31T12:54:37.138Z,3.83
2022-12-31T12:57:24.553Z,4.45
2022-12-31T13:00:29.907Z,3.55
2022-12-31T13:03:27.070Z,3.42
2022-12-31T13:06:03.397Z,3.90
2022-12-31T13:09:00.143Z,3.75
2022-12-31T13:11:39.761Z,3.40
2022-12-31T13:14:30.998Z,3.30
2022-12-31T13:17:21.238Z,4.00
2022-12-31T13:20:26.287Z,3.53
2022-12-31T13:23:21.306Z,4.13
2022-12-31T13:26:02.073Z,3.22
2022-12-31T13:28:31.924Z,3.47
2022-12-31T13:31:06.788Z,3.53
2022-12-31T13:33:50.338Z,3.88
2022-12-31T13:36:21.471Z,4.00
2022-12-31T13:38:53.672Z,3.55
2022-12-31T13:41:26.610Z,4.18
2022-12-31T13:44:12.451Z,3.60
2022-12-31T13:46:46.030Z,4.35
2022-12-31T13:52:16.796Z,3.53
2022-12-31T13:54:54.525Z,4.13
2022-12-31T13:58:16.613Z,4.18
2022-12-31T14:00:49.295Z,4.45
2022-12-31T14:03:44.277Z,4.30
2022-12-31T14:06:24.181Z,4.53
2022-12-31T14:08:53.570Z,4.45
2022-12-31T14:11:39.419Z,4.45
2022-12-31T14:14:29.663Z,4.82
2022-12-31T14:17:19.772Z,4.53
2022-12-31T14:20:17.928Z,5.22
2022-12-31T14:23:20.201Z,4.70
2022-12-31T14:25:57.402Z,5.13
2022-12-31T14:28:33.061Z,5.38
2022-12-31T14:31:13.882Z,5.07
2022-12-31T14:33:55.079Z,5.25
2022-12-31T14:36:34.365Z,5.55
2022-12-31T14:39:26.321Z,4.78
2022-12-31T14:42:09.073Z,4.78
2022-12-31T14:44:43.067Z,5.50
2022-12-31T14:47:18.960Z,5.65
2022-12-31T14:50:11.023Z,6.03
2022-12-31T14:53:04.406Z,5.60
2022-12-31T14:55:34.301Z,5.30
2022-12-31T15:00:57.016Z,4.55
2022-12-31T15:03:41.210Z,5.28
2022-12-31T15:06:15.084Z,5.22
2022-12-31T15:09:08.248Z,4.82
2022-12-31T15:11:49.722Z,5.28
2022-12-31T15:14:38.490Z,5.00
2022-12-31T15:17:24.038Z,5.72
2022-12-31T15:20:16.932Z,5.57
2022-12-31T15:22:50.425Z,6.25
2022-12-31T15:25:31.697Z,5.55
2022-12-31T15:28:05.683Z,6.43
2022-12-31T15:30:44.858Z,5.82
2022-12-31T15:33:29.833Z,5.85
2022-12-31T15:35:58.587Z,6.25
2022-12-31T15:38:33.311Z,6.30
2022-12-31T15:41:01.256Z,6.07
2022-12-31T15:43:37.071Z,6.28
2022-12-31T15:46:16.570Z,6.57
2022-12-31T15:49:04.970Z,6.25
2022-12-31T15:51:42.601Z,7.22
2022-12-31T15:54:23.192Z,7.60
2022-12-31T15:56:52.113Z,7.60
2022-12-31T15:59:21.565Z,7.63
2022-12-31T16:01:49.192Z,7.40
2022-12-31T16:04:22.909Z,7.15
2022-12-31T16:06:51.396Z,6.80
2022-12-31T16:09:29.190Z,7.40
2022-12-31T16:11:59.312Z,7.88
2022-12-31T16:14:37.609Z,8.88
2022-12-31T16:17:06.316Z,8.70
2022-12-31T16:19:52.313Z,8.98
2022-12-31T16:22:26.935Z,8.57
2022-12-31T16:25:29.669Z,8.98
2022-12-31T16:27:50.137Z,9.48
2022-12-31T16:30:32.295Z,9.98
2022-12-31T16:33:03.836Z,9.23
2022-12-31T16:35:39.387Z,10.45
2022-12-31T16:38:19.747Z,10.13
2022-12-31T16:41:01.728Z,10.45
2022-12-31T16:43:35.809Z,10.60
2022-12-31T16:46:19.589Z,11.75
2022-12-31T16:48:57.361Z,10.23
2022-12-31T16:51:32.561Z,10.48
2022-12-31T16:54:02.160Z,11.38
2022-12-31T16:56:37.959Z,10.50
2022-12-31T16:59:31.926Z,9.90
2022-12-31T17:02:04.913Z,10.68
2022-12-31T17:04:32.216Z,10.63
2022-12-31T17:07:25.317Z,11.40
2022-12-31T17:10:07.628Z,11.02
2022-12-31T17:13:01.036Z,11.30
2022-12-31T17:15:40.484Z,12.45
2022-12-31T17:18:08.569Z,11.10
2022-12-31T17:20:36.742Z,10.77
2022-12-31T17:23:09.455Z,15.50
2022-12-31T17:25:38.462Z,10.13
2022-12-31T17:28:23.426Z,10.73
2022-12-31T17:30:51.387Z,10.70
2022-12-31T17:33:18.396Z,9.32
2022-12-31T17:35:46.588Z,9.93
2022-12-31T17:38:22.616Z,12.70
2022-12-31T17:40:53.694Z,14.82
2022-12-31T17:43:23.955Z,15.15
2022-12-31T17:45:51.974Z,13.10
2022-12-31T17:48:20.585Z,15.40
2022-12-31T17:50:56.675Z,11.73
2022-12-31T17:53:23.779Z,11.25
2022-12-31T17:55:53.538Z,10.80
2022-12-31T17:58:29.635Z,11.60
2022-12-31T18:00:58.161Z,12.32
2022-12-31T18:03:25.533Z,13.50
2022-12-31T18:05:52.634Z,13.05
2022-12-31T18:08:19.740Z,10.82
2022-12-31T18:10:47.153Z,11.40
2022-12-31T18:13:20.407Z,10.98
2022-12-31T18:18:25.538Z,10.63
2022-12-31T18:20:58.835Z,10.35
2022-12-31T18:23:46.509Z,10.02
2022-12-31T18:26:18.788Z,10.13
2022-12-31T18:28:46.699Z,9.82
2022-12-31T18:31:25.582Z,10.35
2022-12-31T18:33:54.653Z,32.10
2022-12-31T18:36:23.095Z,44.45
2022-12-31T18:38:51.083Z,30.92
2022-12-31T18:41:20.709Z,27.20
2022-12-31T18:43:48.350Z,13.77
2022-12-31T18:46:20.553Z,12.98
2022-12-31T18:48:47.885Z,14.93
2022-12-31T18:51:23.974Z,16.13
2022-12-31T18:53:53.703Z,12.68
2022-12-31T18:56:22.304Z,10.43
2022-12-31T18:58:49.408Z,10.32
2022-12-31T19:01:25.232Z,9.45
2022-12-31T19:03:52.733Z,9.40
2022-12-31T19:06:19.779Z,9.15
2022-12-31T19:08:46.911Z,9.95
2022-12-31T19:11:15.289Z,14.18
2022-12-31T19:13:42.552Z,17.08
2022-12-31T19:16:10.280Z,20.25
2022-12-31T19:18:37.851Z,18.83
2022-12-31T19:21:05.165Z,17.35
2022-12-31T19:23:32.364Z,16.92
2022-12-31T19:25:59.425Z,17.42
2022-12-31T19:28:27.857Z,18.15
2022-12-31T19:30:56.067Z,18.10
2022-12-31T19:33:24.734Z,19.10
2022-12-31T19:35:51.886Z,18.00
2022-12-31T19:38:26.517Z,19.02
2022-12-31T19:40:54.975Z,20.67
2022-12-31T19:43:23.807Z,20.73
2022-12-31T19:45:52.995Z,20.17
2022-12-31T19:48:28.760Z,22.60
2022-12-31T19:50:59.810Z,26.00
2022-12-31T19:53:28.215Z,24.20
2022-12-31T19:55:55.393Z,25.73
2022-12-31T19:58:28.589Z,25.95
2022-12-31T20:01:02.346Z,23.55
2022-12-31T20:03:32.840Z,29.75
2022-12-31T20:06:06.232Z,32.30
2022-12-31T20:08:34.565Z,30.40
2022-12-31T20:11:13.510Z,30.33
2022-12-31T20:13:42.751Z,28.15
2022-12-31T20:16:12.456Z,27.88
2022-12-31T20:18:41.212Z,30.73
2022-12-31T20:21:15.045Z,34.17
2022-12-31T20:23:42.305Z,33.47
2022-12-31T20:26:09.980Z,32.75
2022-12-31T20:28:37.893Z,34.17
2022-12-31T20:31:09.828Z,35.67
2022-12-31T20:33:37.171Z,36.10
2022-12-31T20:36:05.857Z,32.97
2022-12-31T20:38:32.906Z,30.73
2022-12-31T20:41:20.427Z,28.00
2022-12-31T20:43:48.164Z,28.00
2022-12-31T20:46:20.876Z,29.90
2022-12-31T20:48:50.163Z,30.88
2022-12-31T20:51:18.257Z,35.63
2022-12-31T20:53:47.916Z,32.63
2022-12-31T20:56:15.957Z,32.08
2022-12-31T20:58:43.737Z,28.83
2022-12-31T21:01:11.407Z,31.02
2022-12-31T21:06:28.668Z,28.23
2022-12-31T21:08:57.755Z,34.33
2022-12-31T21:11:43.496Z,35.15
2022-12-31T21:14:10.609Z,31.40
2022-12-31T21:16:37.610Z,26.23
2022-12-31T21:19:05.664Z,27.88
2022-12-31T21:21:32.829Z,26.33
2022-12-31T21:23:59.852Z,24.30
2022-12-31T21:26:27.748Z,23.13
2022-12-31T21:28:54.839Z,25.10
2022-12-31T21:31:22.050Z,28.35
2022-12-31T21:33:49.501Z,25.80
2022-12-31T21:36:16.582Z,29.13
2022-12-31T21:38:44.464Z,24.52
2022-12-31T21:41:33.547Z,24.13
2022-12-31T21:44:01.610Z,21.10
2022-12-31T21:46:29.256Z,21.95
2022-12-31T21:48:58.645Z,22.15
2022-12-31T21:51:26.572Z,22.10
2022-12-31T21:53:53.597Z,24.02
2022-12-31T21:56:21.821Z,24.83
2022-12-31T21:59:13.658Z,23.85
2022-12-31T22:01:59.489Z,29.35
2022-12-31T22:07:14.146Z,27.63
2022-12-31T22:09:41.194Z,33.28
2022-12-31T22:12:08.289Z,30.00
2022-12-31T22:14:35.430Z,22.63
2022-12-31T22:17:02.410Z,21.58
2022-12-31T22:19:29.387Z,20.27
2022-12-31T22:21:56.503Z,19.85
2022-12-31T22:24:23.575Z,20.30
2022-12-31T22:26:52.222Z,22.48
2022-12-31T22:29:19.985Z,21.90
2022-12-31T22:31:47.400Z,21.95
2022-12-31T22:34:14.630Z,20.75
2022-12-31T22:36:41.756Z,19.65
2022-12-31T22:39:44.787Z,21.35
2022-12-31T22:42:02.200Z,20.17
2022-12-31T22:44:29.413Z,20.38
2022-12-31T22:46:56.503Z,21.55
2022-12-31T22:49:23.749Z,20.25
2022-12-31T22:51:57.299Z,20.83
2022-12-31T22:54:26.130Z,21.08
2022-12-31T22:56:53.272Z,22.27
2022-12-31T22:59:20.501Z,45.42
2022-12-31T23:01:48.350Z,36.80
2022-12-31T23:04:15.954Z,53.83
2022-12-31T23:06:46.240Z,212.75
2022-12-31T23:09:34.054Z,215.98
2022-12-31T23:12:01.762Z,225.27
2022-12-31T23:14:47.555Z,289.67
2022-12-31T23:17:36.758Z,270.98
2022-12-31T23:20:24.524Z,227.23
2022-12-31T23:23:09.688Z,183.93
2022-12-31T23:25:43.398Z,151.10
2022-12-31T23:28:28.335Z,122.50
2022-12-31T23:30:55.434Z,107.65
2022-12-31T23:33:26.619Z,100.47
2022-12-31T23:36:05.591Z,99.75
2022-12-31T23:38:32.670Z,104.57
2022-12-31T23:40:59.609Z,111.00
2022-12-31T23:43:26.716Z,107.43
2022-12-31T23:45:53.760Z,107.28
2022-12-31T23:48:20.934Z,110.18
2022-12-31T23:50:53.363Z,106.40
2022-12-31T23:53:25.116Z,112.53
2022-12-31T23:55:53.162Z,107.68
2022-12-31T23:58:21.275Z,104.80
